Terminal Aerodrome Forecast
Issued by NWS

Home | Current Version | Previous Version | Graphics & Text | Print | Product List | Glossary On
Versions: 1 2 3 4 5 6 7 8 9 10 11 12 13 14 15 16 17 18 19
000
FTUS43 KGRB 160500
TAFAUW
TAF
KAUW 160520Z 1606/1706 13005KT P6SM BKN080
     FM161100 12009G15KT P6SM -SN SCT025 OVC050
     FM161300 12013G23KT 1 1/2SM -SN SCT006 OVC015
      TEMPO 1613/1617 3/4SM -SN BKN006
     FM161900 12013G23KT 5SM -RASN BKN025
     FM170000 11012G20KT 3SM -SN BKN018 WS016/15045KT=

USA.gov is the U.S. government's official web portal to all federal, state and local government web resources and services.